createdAt,value
2023-03-06T00:01:01.263Z,2.50
2023-03-06T00:02:03.795Z,2.50
2023-03-06T00:03:07.803Z,2.50
2023-03-06T00:04:11.578Z,2.50
2023-03-06T00:05:15.250Z,2.50
2023-03-06T00:06:18.001Z,2.50
2023-03-06T00:07:20.469Z,2.50
2023-03-06T00:08:24.090Z,2.50
2023-03-06T00:09:26.699Z,2.50
2023-03-06T00:10:31.525Z,2.50
2023-03-06T00:11:33.794Z,2.50
2023-03-06T00:12:37.529Z,2.50
2023-03-06T00:13:40.016Z,2.50
2023-03-06T00:14:42.469Z,2.50
2023-03-06T00:15:45.689Z,2.50
2023-03-06T00:16:48.051Z,2.50
2023-03-06T00:17:51.517Z,2.50
2023-03-06T00:18:55.119Z,2.50
2023-03-06T00:19:57.776Z,2.50
2023-03-06T00:21:01.756Z,2.50
2023-03-06T00:22:04.178Z,2.50
2023-03-06T00:23:06.780Z,2.60
2023-03-06T00:24:09.473Z,2.50
2023-03-06T00:25:17.552Z,2.50
2023-03-06T00:26:19.977Z,2.50
2023-03-06T00:27:28.017Z,2.50
2023-03-06T00:28:31.850Z,2.50
2023-03-06T00:29:35.298Z,2.50
2023-03-06T00:30:37.804Z,2.50
2023-03-06T00:31:40.144Z,2.50
2023-03-06T00:32:43.065Z,2.50
2023-03-06T00:33:46.353Z,2.50
2023-03-06T00:34:56.826Z,2.50
2023-03-06T00:36:00.570Z,2.50
2023-03-06T00:37:02.964Z,2.50
2023-03-06T00:38:07.391Z,2.50
2023-03-06T00:39:09.941Z,2.50
2023-03-06T00:40:15.295Z,2.50
2023-03-06T00:41:17.819Z,2.50
2023-03-06T00:42:20.455Z,2.60
2023-03-06T00:43:22.858Z,2.60
2023-03-06T00:44:25.525Z,2.60
2023-03-06T00:45:30.073Z,2.60
2023-03-06T00:46:32.508Z,2.60
2023-03-06T00:47:35.231Z,2.60
2023-03-06T00:48:37.777Z,2.50
2023-03-06T00:49:40.325Z,2.50
2023-03-06T00:50:43.053Z,2.50
2023-03-06T00:51:45.559Z,2.50
2023-03-06T00:52:48.178Z,2.50
2023-03-06T00:53:51.020Z,2.50
2023-03-06T00:54:53.832Z,2.50
2023-03-06T00:55:56.352Z,2.50
2023-03-06T00:56:58.435Z,2.50
2023-03-06T00:58:01.203Z,2.50
2023-03-06T00:59:03.657Z,2.50
2023-03-06T01:00:08.246Z,2.50
2023-03-06T01:01:10.944Z,2.50
2023-03-06T01:02:14.040Z,2.50
2023-03-06T01:03:16.493Z,2.50
2023-03-06T01:04:20.020Z,2.40
2023-03-06T01:05:22.366Z,2.50
2023-03-06T01:06:24.883Z,2.50
2023-03-06T01:07:28.227Z,2.50
2023-03-06T01:08:30.835Z,2.50
2023-03-06T01:09:33.503Z,2.50
2023-03-06T01:10:39.859Z,2.50
2023-03-06T01:11:42.255Z,2.50
2023-03-06T01:12:45.664Z,2.50
2023-03-06T01:13:48.284Z,2.50
2023-03-06T01:14:50.419Z,2.50
2023-03-06T01:15:53.171Z,2.50
2023-03-06T01:16:55.335Z,2.40
2023-03-06T01:17:57.722Z,2.40
2023-03-06T01:19:00.108Z,2.40
2023-03-06T01:20:02.796Z,2.40
2023-03-06T01:21:06.608Z,2.40
2023-03-06T01:22:09.342Z,2.40
2023-03-06T01:23:11.706Z,2.40
2023-03-06T01:24:13.920Z,2.40
2023-03-06T01:25:16.992Z,2.40
2023-03-06T01:26:20.162Z,2.30
2023-03-06T01:27:22.100Z,2.30
2023-03-06T01:28:24.569Z,2.40
2023-03-06T01:29:26.972Z,2.30
2023-03-06T01:30:30.004Z,2.30
2023-03-06T01:31:32.606Z,2.30
2023-03-06T01:32:35.167Z,2.30
2023-03-06T01:33:38.244Z,2.30
2023-03-06T01:34:41.148Z,2.30
2023-03-06T01:35:43.499Z,2.30
2023-03-06T01:36:45.956Z,2.30
2023-03-06T01:37:48.673Z,2.30
2023-03-06T01:38:51.172Z,2.30
2023-03-06T01:39:54.998Z,2.30
2023-03-06T01:40:57.457Z,2.20
2023-03-06T01:41:59.910Z,2.20
2023-03-06T01:43:38.538Z,2.20
2023-03-06T01:45:05.334Z,2.20
2023-03-06T01:46:29.418Z,2.20
2023-03-06T01:47:33.101Z,2.20
2023-03-06T01:48:36.226Z,2.20
2023-03-06T01:49:41.908Z,2.20
2023-03-06T01:50:46.041Z,2.20
2023-03-06T01:52:11.498Z,2.20
2023-03-06T01:53:15.024Z,2.20
2023-03-06T01:54:34.616Z,2.20
2023-03-06T01:55:37.693Z,2.20
2023-03-06T01:56:44.119Z,2.20
2023-03-06T01:57:52.764Z,2.20
2023-03-06T01:58:55.667Z,2.20
2023-03-06T02:00:14.446Z,2.20
2023-03-06T02:01:18.105Z,2.20
2023-03-06T02:02:21.281Z,2.20
2023-03-06T02:03:27.021Z,2.20
2023-03-06T02:04:32.083Z,2.20
2023-03-06T02:05:34.616Z,2.10
2023-03-06T02:06:39.529Z,2.20
2023-03-06T02:07:43.399Z,2.20
2023-03-06T02:08:50.613Z,2.20
2023-03-06T02:09:53.819Z,2.20
2023-03-06T02:11:17.896Z,2.10
2023-03-06T02:12:22.238Z,2.20
2023-03-06T02:13:25.565Z,2.20
2023-03-06T02:14:29.261Z,2.20
2023-03-06T02:15:31.983Z,2.10
2023-03-06T02:16:35.090Z,2.10
2023-03-06T02:17:37.777Z,2.10
2023-03-06T02:18:42.537Z,2.10
2023-03-06T02:20:11.954Z,2.10
2023-03-06T02:21:24.649Z,2.10
2023-03-06T02:22:36.442Z,2.10
2023-03-06T02:23:49.007Z,2.10
2023-03-06T02:25:05.026Z,2.10
2023-03-06T02:26:09.760Z,2.10
2023-03-06T02:27:14.601Z,2.10
2023-03-06T02:28:22.724Z,2.10
2023-03-06T02:29:28.929Z,2.10
2023-03-06T02:30:32.028Z,2.10
2023-03-06T02:31:35.871Z,2.10
2023-03-06T02:32:39.704Z,2.10
2023-03-06T02:33:42.161Z,2.10
2023-03-06T02:34:51.705Z,2.00
2023-03-06T02:36:01.993Z,2.00
2023-03-06T02:37:09.690Z,2.00
2023-03-06T02:38:16.847Z,2.00
2023-03-06T02:39:23.084Z,2.00
2023-03-06T02:40:26.391Z,2.00
2023-03-06T02:41:29.291Z,2.00
2023-03-06T02:42:32.726Z,2.00
2023-03-06T02:43:39.189Z,2.00
2023-03-06T02:44:43.004Z,2.00
2023-03-06T02:45:49.691Z,2.00
2023-03-06T02:46:53.629Z,2.00
2023-03-06T02:47:56.334Z,2.00
2023-03-06T02:48:59.001Z,2.00
2023-03-06T02:50:01.511Z,2.00
2023-03-06T02:51:04.014Z,2.00
2023-03-06T02:52:07.925Z,1.90
2023-03-06T02:53:13.017Z,1.90
2023-03-06T02:54:18.424Z,2.00
2023-03-06T02:55:20.837Z,2.00
2023-03-06T02:56:23.238Z,2.00
2023-03-06T02:57:25.484Z,2.00
2023-03-06T02:58:27.806Z,2.00
2023-03-06T02:59:30.571Z,1.90
2023-03-06T03:00:33.478Z,1.90
2023-03-06T03:01:36.032Z,1.90
2023-03-06T03:02:38.696Z,1.90
2023-03-06T03:03:41.308Z,1.90
2023-03-06T03:04:43.693Z,1.90
2023-03-06T03:05:45.891Z,1.90
2023-03-06T03:06:48.335Z,1.90
2023-03-06T03:07:50.799Z,1.80
2023-03-06T03:08:53.777Z,1.80
2023-03-06T03:09:57.113Z,1.80
2023-03-06T03:10:59.594Z,1.80
2023-03-06T03:12:02.523Z,1.80
2023-03-06T03:13:06.915Z,1.80
2023-03-06T03:14:10.648Z,1.80
2023-03-06T03:15:13.061Z,1.80
2023-03-06T03:16:16.359Z,1.80
2023-03-06T03:17:18.848Z,1.80
2023-03-06T03:18:21.384Z,1.80
2023-03-06T03:19:23.690Z,1.80
2023-03-06T03:20:27.450Z,1.80
2023-03-06T03:21:29.917Z,1.80
2023-03-06T03:22:32.223Z,1.80
2023-03-06T03:23:35.710Z,1.80
2023-03-06T03:24:38.167Z,1.80
2023-03-06T03:25:40.457Z,1.80
2023-03-06T03:26:44.651Z,1.80
2023-03-06T03:27:47.135Z,1.80
2023-03-06T03:28:49.507Z,1.80
2023-03-06T03:29:51.996Z,1.80
2023-03-06T03:30:54.581Z,1.80
2023-03-06T03:31:57.073Z,1.80
2023-03-06T03:32:59.842Z,1.80
2023-03-06T03:34:03.844Z,1.80
2023-03-06T03:35:07.888Z,1.80
2023-03-06T03:36:10.661Z,1.80
2023-03-06T03:37:12.925Z,1.80
2023-03-06T03:38:15.613Z,1.80
2023-03-06T03:39:18.582Z,1.80
2023-03-06T03:40:20.932Z,1.70
2023-03-06T03:41:23.885Z,1.80
2023-03-06T03:42:26.295Z,1.80
2023-03-06T03:43:29.022Z,1.80
2023-03-06T03:44:31.389Z,1.80
2023-03-06T03:45:33.978Z,1.80
2023-03-06T03:46:36.631Z,1.80
2023-03-06T03:47:39.019Z,1.80
2023-03-06T03:48:41.510Z,1.80
2023-03-06T03:49:44.076Z,1.80
2023-03-06T03:50:46.451Z,1.80
2023-03-06T03:51:48.674Z,1.70
2023-03-06T03:52:52.330Z,1.70
2023-03-06T03:53:56.948Z,1.70
2023-03-06T03:54:59.564Z,1.70
2023-03-06T03:56:02.041Z,1.70
2023-03-06T03:57:05.167Z,1.80
2023-03-06T03:58:07.685Z,1.80
2023-03-06T03:59:10.314Z,1.80
2023-03-06T04:00:16.564Z,1.70
2023-03-06T04:01:19.024Z,1.70
2023-03-06T04:02:24.301Z,1.70
2023-03-06T04:03:26.967Z,1.70
2023-03-06T04:04:30.755Z,1.70
2023-03-06T04:05:34.133Z,1.70
2023-03-06T04:06:36.673Z,1.70
2023-03-06T04:07:39.658Z,1.70
2023-03-06T04:08:42.544Z,1.70
2023-03-06T04:09:45.290Z,1.70
2023-03-06T04:10:48.407Z,1.70
2023-03-06T04:11:50.771Z,1.70
2023-03-06T04:12:55.126Z,1.70
2023-03-06T04:13:57.579Z,1.70
2023-03-06T04:15:00.254Z,1.70
2023-03-06T04:16:02.948Z,1.70
2023-03-06T04:17:05.383Z,1.70
2023-03-06T04:18:08.147Z,1.80
2023-03-06T04:19:11.922Z,1.80
2023-03-06T04:20:16.077Z,1.80
2023-03-06T04:21:19.183Z,1.80
2023-03-06T04:22:21.940Z,1.80
2023-03-06T04:23:24.611Z,1.80
2023-03-06T04:24:27.032Z,1.80
2023-03-06T04:25:30.848Z,1.80
2023-03-06T04:26:33.304Z,1.80
2023-03-06T04:27:36.171Z,1.80
2023-03-06T04:28:38.493Z,1.80
2023-03-06T04:29:41.911Z,1.80
2023-03-06T04:30:45.763Z,1.80
2023-03-06T04:31:49.512Z,1.80
2023-03-06T04:32:51.943Z,1.80
2023-03-06T04:33:54.545Z,1.80
2023-03-06T04:34:58.241Z,1.80
2023-03-06T04:36:00.745Z,1.80
2023-03-06T04:37:06.060Z,1.80
2023-03-06T04:38:08.472Z,1.80
2023-03-06T04:39:12.606Z,1.80
2023-03-06T04:40:25.031Z,1.80
2023-03-06T04:41:27.584Z,1.80
2023-03-06T04:42:30.217Z,1.80
2023-03-06T04:43:32.756Z,1.80
2023-03-06T04:44:35.395Z,1.80
2023-03-06T04:45:38.383Z,1.80
2023-03-06T04:46:41.993Z,1.80
2023-03-06T04:47:44.869Z,1.80
2023-03-06T04:48:47.484Z,1.80
2023-03-06T04:49:49.812Z,1.80
2023-03-06T04:50:52.390Z,1.80
2023-03-06T04:51:54.793Z,1.80
2023-03-06T04:52:57.191Z,1.80
2023-03-06T04:53:59.593Z,1.80
2023-03-06T04:55:04.694Z,1.80
2023-03-06T04:56:07.586Z,1.80
2023-03-06T04:57:11.012Z,1.80
2023-03-06T04:58:15.352Z,1.70
2023-03-06T04:59:17.821Z,1.70
2023-03-06T05:00:29.621Z,1.70
2023-03-06T05:01:32.083Z,1.70
2023-03-06T05:02:35.395Z,1.70
2023-03-06T05:03:40.080Z,1.70
2023-03-06T05:04:42.566Z,1.70
2023-03-06T05:05:45.497Z,1.70
2023-03-06T05:06:48.107Z,1.70
2023-03-06T05:07:50.575Z,1.70
2023-03-06T05:08:53.138Z,1.70
2023-03-06T05:09:55.061Z,1.70
2023-03-06T05:10:59.834Z,1.70
2023-03-06T05:12:02.691Z,1.70
2023-03-06T05:13:06.316Z,1.70
2023-03-06T05:14:08.865Z,1.70
2023-03-06T05:15:13.913Z,1.70
2023-03-06T05:16:16.357Z,1.60
2023-03-06T05:17:23.037Z,1.70
2023-03-06T05:18:24.793Z,1.70
2023-03-06T05:19:27.976Z,1.60
2023-03-06T05:20:29.876Z,1.60
2023-03-06T05:21:31.625Z,1.60
2023-03-06T05:22:34.331Z,1.60
2023-03-06T05:23:38.572Z,1.70
2023-03-06T05:24:40.423Z,1.70
2023-03-06T05:25:42.463Z,1.70
2023-03-06T05:26:44.195Z,1.60
2023-03-06T05:27:46.004Z,1.60
2023-03-06T05:28:47.778Z,1.60
2023-03-06T05:29:49.555Z,1.60
2023-03-06T05:30:51.621Z,1.60
2023-03-06T05:31:53.459Z,1.60
2023-03-06T05:32:55.425Z,1.60
2023-03-06T05:33:58.454Z,1.60
2023-03-06T05:35:00.188Z,1.60
2023-03-06T05:36:02.137Z,1.60
2023-03-06T05:37:03.958Z,1.50
2023-03-06T05:38:05.727Z,1.50
2023-03-06T05:39:07.823Z,1.50
2023-03-06T05:40:10.259Z,1.50
2023-03-06T05:41:14.027Z,1.50
2023-03-06T05:42:15.796Z,1.50
2023-03-06T05:43:17.635Z,1.50
2023-03-06T05:44:19.511Z,1.60
2023-03-06T05:45:21.386Z,1.50
2023-03-06T05:46:23.222Z,1.60
2023-03-06T05:47:25.118Z,1.50
2023-03-06T05:48:26.914Z,1.50
2023-03-06T05:49:33.288Z,1.60
2023-03-06T05:50:35.075Z,1.60
2023-03-06T05:51:36.851Z,1.60
2023-03-06T05:52:39.829Z,1.60
2023-03-06T05:53:41.601Z,1.60
2023-03-06T05:54:43.434Z,1.60
2023-03-06T05:55:45.154Z,1.60
2023-03-06T05:56:46.927Z,1.60
2023-03-06T05:57:48.659Z,1.60
2023-03-06T05:58:51.575Z,1.60
2023-03-06T05:59:53.451Z,1.60
2023-03-06T06:00:55.286Z,1.60
2023-03-06T06:01:57.358Z,1.60
2023-03-06T06:03:01.922Z,1.60
2023-03-06T06:04:03.719Z,1.60
2023-03-06T06:05:05.807Z,1.60
2023-03-06T06:06:09.678Z,1.60
2023-03-06T06:07:14.950Z,1.60
2023-03-06T06:08:16.739Z,1.60
2023-03-06T06:09:18.480Z,1.60
2023-03-06T06:10:20.308Z,1.60
2023-03-06T06:11:22.061Z,1.60
2023-03-06T06:12:23.904Z,1.60
2023-03-06T06:13:25.700Z,1.60
2023-03-06T06:14:28.738Z,1.60
2023-03-06T06:15:30.644Z,1.60
2023-03-06T06:16:32.521Z,1.50
2023-03-06T06:17:34.318Z,1.50
2023-03-06T06:18:36.044Z,1.60
2023-03-06T06:19:37.961Z,1.50
2023-03-06T06:20:39.897Z,1.50
2023-03-06T06:21:41.639Z,1.50
2023-03-06T06:22:43.439Z,1.50
2023-03-06T06:23:45.197Z,1.50
2023-03-06T06:24:47.248Z,1.50
2023-03-06T06:25:49.028Z,1.50
2023-03-06T06:26:55.613Z,1.60
2023-03-06T06:27:57.817Z,1.60
2023-03-06T06:29:00.359Z,1.60
2023-03-06T06:30:02.412Z,1.60
2023-03-06T06:31:13.440Z,1.60
2023-03-06T06:32:15.243Z,1.60
2023-03-06T06:33:16.938Z,1.60
2023-03-06T06:34:19.603Z,1.60
2023-03-06T06:35:21.537Z,1.60
2023-03-06T06:36:23.312Z,1.60
2023-03-06T06:37:26.187Z,1.70
2023-03-06T06:38:27.953Z,1.70
2023-03-06T06:39:30.428Z,1.70
2023-03-06T06:40:32.183Z,1.70
2023-03-06T06:41:52.994Z,1.70
2023-03-06T06:42:55.849Z,1.70
2023-03-06T06:43:59.106Z,1.80
2023-03-06T06:45:00.916Z,1.80
2023-03-06T06:46:26.224Z,1.80
2023-03-06T06:47:25.750Z,1.80
2023-03-06T06:48:27.817Z,1.80
2023-03-06T06:49:29.593Z,1.90
2023-03-06T06:50:31.401Z,1.90
2023-03-06T06:51:35.860Z,1.90
2023-03-06T06:52:37.614Z,1.90
2023-03-06T06:53:39.305Z,1.90
2023-03-06T06:54:41.051Z,1.90
2023-03-06T06:55:42.975Z,1.90
2023-03-06T06:56:44.693Z,1.90
2023-03-06T06:57:46.469Z,1.90
2023-03-06T06:58:48.450Z,2.00
2023-03-06T06:59:53.865Z,1.90
2023-03-06T07:00:55.825Z,2.00
2023-03-06T07:01:57.669Z,2.00
2023-03-06T07:02:59.423Z,2.00
2023-03-06T07:04:01.456Z,2.10
2023-03-06T07:05:05.381Z,2.10
2023-03-06T07:06:08.007Z,2.00
2023-03-06T07:07:09.778Z,2.10
2023-03-06T07:08:11.491Z,2.10
2023-03-06T07:09:13.911Z,2.10
2023-03-06T07:10:16.003Z,2.10
2023-03-06T07:11:18.794Z,2.10
2023-03-06T07:12:20.589Z,2.10
2023-03-06T07:13:22.360Z,2.10
2023-03-06T07:14:24.530Z,2.20
2023-03-06T07:15:27.149Z,2.20
2023-03-06T07:16:28.875Z,2.20
2023-03-06T07:17:30.669Z,2.20
2023-03-06T07:18:32.479Z,2.20
2023-03-06T07:19:34.761Z,2.20
2023-03-06T07:20:36.736Z,2.30
2023-03-06T07:21:38.470Z,2.20
2023-03-06T07:22:50.404Z,2.20
2023-03-06T07:23:54.288Z,2.30
2023-03-06T07:24:56.047Z,2.30
2023-03-06T07:25:57.862Z,2.30
2023-03-06T07:26:59.727Z,2.20
2023-03-06T07:28:01.609Z,2.30
2023-03-06T07:29:04.561Z,2.30
2023-03-06T07:30:07.111Z,2.30
2023-03-06T07:31:11.580Z,2.30
2023-03-06T07:32:13.498Z,2.30
2023-03-06T07:33:15.920Z,2.30
2023-03-06T07:34:17.683Z,2.30
2023-03-06T07:35:20.841Z,2.30
2023-03-06T07:36:23.993Z,2.30
2023-03-06T07:37:25.731Z,2.40
2023-03-06T07:38:27.564Z,2.40
2023-03-06T07:39:30.183Z,2.40
2023-03-06T07:40:31.961Z,2.40
2023-03-06T07:41:34.001Z,2.50
2023-03-06T07:42:36.296Z,2.50
2023-03-06T07:43:38.070Z,2.50
2023-03-06T07:44:39.942Z,2.50
2023-03-06T07:45:41.669Z,2.50
2023-03-06T07:46:43.416Z,2.50
2023-03-06T07:47:45.674Z,2.50
2023-03-06T07:48:47.441Z,2.50
2023-03-06T07:49:49.256Z,2.50
2023-03-06T07:50:59.677Z,2.50
2023-03-06T07:52:02.149Z,2.50
2023-03-06T07:53:03.998Z,2.50
2023-03-06T07:54:05.816Z,2.60
2023-03-06T07:55:08.486Z,2.60
2023-03-06T07:56:11.867Z,2.70
2023-03-06T07:57:13.707Z,2.70
2023-03-06T07:58:15.439Z,2.60
2023-03-06T07:59:17.226Z,2.70
2023-03-06T08:00:19.590Z,2.70
2023-03-06T08:01:23.608Z,2.70
2023-03-06T08:02:25.372Z,2.70
2023-03-06T08:03:27.148Z,2.70
2023-03-06T08:04:30.081Z,2.80
2023-03-06T08:05:31.973Z,2.80
2023-03-06T08:06:33.868Z,2.80
2023-03-06T08:07:36.034Z,2.80
2023-03-06T08:08:39.915Z,2.80
2023-03-06T08:09:41.720Z,2.80
2023-03-06T08:10:49.026Z,2.80
2023-03-06T08:11:50.809Z,2.90
2023-03-06T08:12:52.583Z,2.90
2023-03-06T08:13:55.141Z,3.00
2023-03-06T08:14:56.896Z,3.00
2023-03-06T08:15:59.996Z,3.00
2023-03-06T08:17:01.988Z,3.00
2023-03-06T08:18:03.760Z,3.10
2023-03-06T08:19:05.527Z,3.10
2023-03-06T08:20:08.129Z,3.10
2023-03-06T08:21:18.598Z,3.10
2023-03-06T08:22:20.342Z,3.10
2023-03-06T08:23:22.064Z,3.10
2023-03-06T08:24:23.791Z,3.10
2023-03-06T08:25:25.622Z,3.10
2023-03-06T08:26:29.847Z,3.10
2023-03-06T08:27:33.093Z,3.20
2023-03-06T08:28:35.061Z,3.20
2023-03-06T08:29:36.781Z,3.20
2023-03-06T08:30:38.525Z,3.20
2023-03-06T08:31:43.170Z,3.20
2023-03-06T08:32:44.938Z,3.20
2023-03-06T08:33:47.290Z,3.20
2023-03-06T08:34:49.058Z,3.20
2023-03-06T08:35:51.193Z,3.20
2023-03-06T08:36:53.316Z,3.20
2023-03-06T08:37:55.136Z,3.20
2023-03-06T08:38:57.590Z,3.30
2023-03-06T08:39:59.536Z,3.20
2023-03-06T08:41:01.681Z,3.20
2023-03-06T08:42:03.480Z,3.30
2023-03-06T08:43:05.254Z,3.30
2023-03-06T08:44:07.447Z,3.30
2023-03-06T08:45:09.869Z,3.40
2023-03-06T08:46:12.078Z,3.40
2023-03-06T08:47:13.979Z,3.40
2023-03-06T08:48:15.759Z,3.40
2023-03-06T08:49:17.556Z,3.40
2023-03-06T08:50:19.395Z,3.40
2023-03-06T08:51:22.053Z,3.30
2023-03-06T08:52:23.785Z,3.30
2023-03-06T08:53:40.476Z,3.30
2023-03-06T08:54:44.326Z,3.30
2023-03-06T08:55:46.425Z,3.30
2023-03-06T08:56:48.164Z,3.30
2023-03-06T08:57:49.965Z,3.30
2023-03-06T08:58:53.037Z,3.30
2023-03-06T08:59:54.938Z,3.30
2023-03-06T09:00:57.032Z,3.30
2023-03-06T09:01:58.881Z,3.30
2023-03-06T09:03:01.065Z,3.30
2023-03-06T09:04:06.192Z,3.20
2023-03-06T09:05:09.044Z,3.20
2023-03-06T09:06:10.853Z,3.20
2023-03-06T09:07:12.634Z,3.20
2023-03-06T09:08:14.440Z,3.20
2023-03-06T09:09:16.529Z,3.20
2023-03-06T09:10:20.773Z,3.20
2023-03-06T09:11:24.690Z,3.20
2023-03-06T09:12:28.055Z,3.30
2023-03-06T09:13:30.190Z,3.20
2023-03-06T09:14:32.048Z,3.20
2023-03-06T09:15:33.892Z,3.10
2023-03-06T09:16:35.767Z,3.10
2023-03-06T09:17:37.773Z,3.10
2023-03-06T09:18:39.900Z,3.10
2023-03-06T09:19:41.733Z,3.10
2023-03-06T09:20:43.476Z,3.20
2023-03-06T09:21:45.249Z,3.10
2023-03-06T09:22:47.750Z,3.20
2023-03-06T09:23:50.254Z,3.30
2023-03-06T09:24:52.485Z,3.30
2023-03-06T09:25:55.946Z,3.40
2023-03-06T09:26:57.702Z,3.50
2023-03-06T09:28:10.902Z,3.50
2023-03-06T09:29:16.128Z,3.50
2023-03-06T09:30:18.961Z,3.60
2023-03-06T09:31:20.982Z,3.60
2023-03-06T09:32:24.056Z,3.70
2023-03-06T09:33:26.830Z,3.80
2023-03-06T09:34:28.760Z,3.80
2023-03-06T09:35:30.582Z,3.80
2023-03-06T09:36:40.102Z,3.90
2023-03-06T09:37:47.614Z,3.90
2023-03-06T09:38:50.245Z,4.00
2023-03-06T09:39:52.026Z,4.10
2023-03-06T09:41:02.781Z,4.20
2023-03-06T09:42:08.893Z,4.20
2023-03-06T09:43:20.545Z,4.30
2023-03-06T09:44:29.214Z,4.40
2023-03-06T09:45:34.245Z,4.50
2023-03-06T09:46:57.867Z,4.60
2023-03-06T09:48:13.391Z,4.60
2023-03-06T09:49:25.377Z,4.60
2023-03-06T09:50:42.213Z,4.60
2023-03-06T09:52:03.145Z,4.50
2023-03-06T09:53:25.259Z,4.60
2023-03-06T09:54:43.788Z,4.60
2023-03-06T09:56:03.382Z,4.60
2023-03-06T09:57:13.070Z,4.60
2023-03-06T09:58:23.230Z,4.60
2023-03-06T09:59:26.058Z,4.70
2023-03-06T10:00:41.829Z,4.70
2023-03-06T10:01:53.361Z,4.70
2023-03-06T10:03:18.185Z,4.70
2023-03-06T10:04:34.495Z,4.70
2023-03-06T10:05:41.140Z,4.70
2023-03-06T10:06:49.512Z,4.70
2023-03-06T10:07:57.659Z,4.70
2023-03-06T10:09:50.559Z,4.70
2023-03-06T10:11:02.126Z,4.70
2023-03-06T10:12:20.118Z,4.70
2023-03-06T10:13:48.271Z,4.70
2023-03-06T10:15:16.265Z,4.70
2023-03-06T10:16:20.769Z,4.70
2023-03-06T10:17:26.120Z,4.70
2023-03-06T10:18:27.889Z,4.70
2023-03-06T10:19:42.182Z,4.70
2023-03-06T10:20:51.480Z,4.50
2023-03-06T10:22:04.269Z,4.40
2023-03-06T10:23:10.477Z,4.30
2023-03-06T10:24:30.514Z,4.30
2023-03-06T10:25:48.813Z,4.30
2023-03-06T10:26:57.293Z,4.20
2023-03-06T10:28:14.126Z,4.20
2023-03-06T10:29:56.369Z,4.20
2023-03-06T10:31:09.356Z,4.10
2023-03-06T10:32:32.120Z,4.10
2023-03-06T10:34:12.541Z,4.20
2023-03-06T10:35:31.333Z,4.20
2023-03-06T10:36:33.080Z,4.30
2023-03-06T10:37:34.850Z,4.30
2023-03-06T10:38:38.173Z,4.40
2023-03-06T10:39:39.962Z,4.40
2023-03-06T10:41:02.193Z,4.40
2023-03-06T10:42:03.930Z,4.50
2023-03-06T10:43:12.316Z,4.50
2023-03-06T10:44:14.187Z,4.60
2023-03-06T10:45:17.112Z,4.50
2023-03-06T10:46:29.873Z,4.60
2023-03-06T10:47:35.338Z,4.60
2023-03-06T10:48:41.713Z,4.60
2023-03-06T10:49:58.692Z,4.60
2023-03-06T10:51:19.431Z,4.70
2023-03-06T10:52:23.117Z,4.70
2023-03-06T10:53:29.163Z,4.70
2023-03-06T10:54:33.949Z,4.60
2023-03-06T10:55:37.664Z,4.50
2023-03-06T10:56:44.704Z,4.40
2023-03-06T10:57:46.399Z,4.40
2023-03-06T10:58:49.568Z,4.40
2023-03-06T10:59:54.010Z,4.50
2023-03-06T11:01:20.860Z,4.50
2023-03-06T11:02:31.935Z,4.50
2023-03-06T11:03:35.465Z,4.50
2023-03-06T11:04:38.750Z,4.40
2023-03-06T11:05:40.620Z,4.40
2023-03-06T11:06:42.803Z,4.40
2023-03-06T11:08:00.174Z,4.40
2023-03-06T11:09:23.613Z,4.30
2023-03-06T11:10:26.076Z,4.20
2023-03-06T11:11:37.241Z,4.10
2023-03-06T11:12:43.744Z,4.00
2023-03-06T11:13:57.491Z,3.80
2023-03-06T11:15:21.341Z,3.70
2023-03-06T11:16:27.812Z,3.70
2023-03-06T11:17:33.487Z,3.70
2023-03-06T11:18:41.377Z,3.70
2023-03-06T11:19:43.299Z,3.70
2023-03-06T11:20:52.508Z,3.70
2023-03-06T11:22:18.106Z,3.70
2023-03-06T11:23:45.680Z,3.70
2023-03-06T11:24:53.526Z,3.70
2023-03-06T11:25:59.515Z,3.80
2023-03-06T11:27:14.736Z,3.80
2023-03-06T11:28:25.310Z,3.90
2023-03-06T11:29:38.472Z,3.90
2023-03-06T11:30:46.481Z,3.90
2023-03-06T11:31:51.679Z,3.90
2023-03-06T11:32:59.069Z,3.90
2023-03-06T11:34:38.832Z,3.90
2023-03-06T11:35:59.690Z,4.00
2023-03-06T11:37:42.817Z,4.10
2023-03-06T11:38:51.956Z,4.00
2023-03-06T11:40:15.018Z,4.00
2023-03-06T11:41:42.436Z,4.00
2023-03-06T11:43:02.719Z,4.00
2023-03-06T11:44:24.728Z,4.00
2023-03-06T11:45:28.689Z,4.00
2023-03-06T11:46:38.520Z,4.00
2023-03-06T11:47:43.064Z,4.00
2023-03-06T11:49:03.434Z,4.00
2023-03-06T11:50:19.003Z,4.10
2023-03-06T11:51:28.638Z,4.00
2023-03-06T11:52:52.469Z,4.10
2023-03-06T11:53:55.178Z,4.10
2023-03-06T11:54:57.911Z,4.00
2023-03-06T11:56:05.620Z,4.10
2023-03-06T11:57:20.048Z,4.10
2023-03-06T11:59:00.812Z,4.20
2023-03-06T12:00:17.549Z,4.30
2023-03-06T12:01:44.418Z,4.30
2023-03-06T12:02:54.922Z,4.50
2023-03-06T12:04:34.084Z,4.60
2023-03-06T12:05:54.776Z,4.60
2023-03-06T12:06:59.189Z,4.60
2023-03-06T12:08:09.828Z,4.60
2023-03-06T12:09:14.605Z,4.60
2023-03-06T12:10:38.574Z,4.60
2023-03-06T12:11:52.602Z,4.60
2023-03-06T12:13:05.985Z,4.70
2023-03-06T12:14:42.702Z,4.70
2023-03-06T12:16:05.915Z,4.70
2023-03-06T12:17:44.693Z,4.60
2023-03-06T12:19:29.674Z,4.60
2023-03-06T12:20:44.996Z,4.60
2023-03-06T12:21:57.826Z,4.70
2023-03-06T12:23:16.779Z,4.80
2023-03-06T12:24:49.451Z,4.80
2023-03-06T12:26:20.093Z,4.80
2023-03-06T12:27:52.785Z,4.80
2023-03-06T12:29:11.648Z,4.70
2023-03-06T12:30:31.500Z,4.60
2023-03-06T12:31:40.098Z,4.50
2023-03-06T12:33:10.074Z,4.40
2023-03-06T12:34:26.322Z,4.30
2023-03-06T12:35:40.170Z,4.40
2023-03-06T12:37:12.862Z,4.40
2023-03-06T12:38:52.666Z,4.40
2023-03-06T12:40:19.692Z,4.50
2023-03-06T12:41:42.439Z,4.50
2023-03-06T12:43:05.566Z,4.50
2023-03-06T12:44:51.330Z,4.50
2023-03-06T12:45:58.404Z,4.60
2023-03-06T12:47:10.680Z,4.60
2023-03-06T12:48:22.446Z,4.60
2023-03-06T12:49:32.262Z,4.70
2023-03-06T12:50:38.585Z,4.70
2023-03-06T12:51:40.813Z,4.70
2023-03-06T12:52:42.948Z,4.70
2023-03-06T12:53:46.317Z,4.70
2023-03-06T12:54:48.560Z,4.80
2023-03-06T12:55:51.609Z,4.70
2023-03-06T12:56:55.314Z,4.70
2023-03-06T12:58:17.011Z,4.70
2023-03-06T12:59:39.415Z,4.70
2023-03-06T13:01:03.614Z,4.60
2023-03-06T13:02:23.045Z,4.60
2023-03-06T13:03:24.777Z,4.60
2023-03-06T13:04:40.855Z,4.60
2023-03-06T13:05:57.828Z,4.50
2023-03-06T13:07:27.725Z,4.50
2023-03-06T13:08:50.926Z,4.40
2023-03-06T13:10:11.159Z,4.40
2023-03-06T13:11:31.884Z,4.40
2023-03-06T13:12:56.215Z,4.30
2023-03-06T13:13:58.017Z,4.20
2023-03-06T13:15:18.882Z,4.20
2023-03-06T13:16:33.296Z,4.10
2023-03-06T13:17:38.936Z,4.10
2023-03-06T13:18:43.903Z,4.00
2023-03-06T13:19:45.740Z,3.90
2023-03-06T13:20:49.334Z,3.90
2023-03-06T13:21:54.074Z,3.90
2023-03-06T13:22:56.698Z,3.90
2023-03-06T13:24:06.144Z,4.00
2023-03-06T13:25:20.002Z,4.00
2023-03-06T13:26:24.982Z,3.90
2023-03-06T13:27:53.017Z,3.90
2023-03-06T13:28:57.708Z,4.00
2023-03-06T13:30:21.049Z,4.10
2023-03-06T13:31:36.347Z,4.10
2023-03-06T13:32:38.253Z,4.00
2023-03-06T13:33:40.016Z,4.00
2023-03-06T13:34:49.983Z,4.00
2023-03-06T13:35:56.909Z,4.10
2023-03-06T13:37:14.021Z,4.10
2023-03-06T13:38:30.428Z,4.10
2023-03-06T13:39:55.109Z,4.20
2023-03-06T13:41:27.996Z,4.20
2023-03-06T13:42:36.858Z,4.20
2023-03-06T13:43:45.028Z,4.20
2023-03-06T13:44:49.643Z,4.20
2023-03-06T13:45:51.665Z,4.30
2023-03-06T13:47:30.301Z,4.40
2023-03-06T13:48:44.886Z,4.40
2023-03-06T13:49:48.764Z,4.40
2023-03-06T13:50:51.608Z,4.50
2023-03-06T13:51:53.299Z,4.60
2023-03-06T13:52:58.018Z,4.60
2023-03-06T13:54:24.174Z,4.60
2023-03-06T13:55:40.898Z,4.60
2023-03-06T13:57:27.418Z,4.70
2023-03-06T13:58:51.089Z,4.80
2023-03-06T14:00:15.782Z,4.80
2023-03-06T14:01:29.005Z,4.80
2023-03-06T14:03:08.435Z,4.80
2023-03-06T14:04:47.946Z,4.80
2023-03-06T14:05:51.308Z,4.90
2023-03-06T14:07:01.800Z,4.80
2023-03-06T14:08:11.267Z,4.80
2023-03-06T14:09:21.324Z,4.70
2023-03-06T14:10:25.664Z,4.70
2023-03-06T14:11:27.960Z,4.80
2023-03-06T14:12:50.937Z,4.70
2023-03-06T14:13:56.451Z,4.70
2023-03-06T14:15:01.363Z,4.80
2023-03-06T14:16:17.320Z,4.80
2023-03-06T14:17:26.680Z,4.80
2023-03-06T14:18:40.154Z,4.80
2023-03-06T14:19:43.035Z,4.80
2023-03-06T14:20:51.474Z,4.90
2023-03-06T14:21:57.449Z,4.90
2023-03-06T14:23:21.157Z,4.90
2023-03-06T14:24:42.355Z,4.80
2023-03-06T14:25:46.092Z,4.80
2023-03-06T14:26:51.431Z,4.90
2023-03-06T14:27:56.412Z,4.90
2023-03-06T14:29:02.267Z,4.90
2023-03-06T14:30:20.933Z,4.90
2023-03-06T14:31:25.753Z,4.90
2023-03-06T14:32:27.694Z,5.00
2023-03-06T14:33:29.701Z,4.90
2023-03-06T14:34:39.357Z,4.90
2023-03-06T14:35:41.210Z,4.90
2023-03-06T14:36:48.805Z,4.90
2023-03-06T14:37:55.646Z,4.90
2023-03-06T14:39:02.195Z,4.90
2023-03-06T14:40:10.951Z,4.90
2023-03-06T14:41:14.126Z,4.90
2023-03-06T14:42:19.073Z,4.90
2023-03-06T14:43:24.551Z,4.90
2023-03-06T14:44:26.554Z,4.90
2023-03-06T14:45:28.339Z,4.90
2023-03-06T14:46:30.110Z,5.00
2023-03-06T14:47:34.943Z,5.00
2023-03-06T14:48:45.687Z,5.00